createdAt,value
2023-03-03T00:04:51.397Z,34.23
2023-03-03T00:09:53.387Z,34.27
2023-03-03T00:14:55.812Z,31.87
2023-03-03T00:19:57.724Z,32.37
2023-03-03T00:25:24.768Z,29.90
2023-03-03T00:30:27.852Z,32.90
2023-03-03T00:35:38.620Z,44.37
2023-03-03T00:40:41.217Z,30.23
2023-03-03T00:45:49.496Z,37.33
2023-03-03T00:50:54.335Z,32.37
2023-03-03T00:55:57.472Z,30.93
2023-03-03T01:00:59.542Z,35.33
2023-03-03T01:06:12.980Z,31.27
2023-03-03T01:11:24.720Z,31.83
2023-03-03T01:16:26.788Z,30.97
2023-03-03T01:21:28.871Z,35.43
2023-03-03T01:26:31.535Z,31.17
2023-03-03T01:31:34.522Z,34.20
2023-03-03T01:36:37.437Z,36.77
2023-03-03T01:41:39.600Z,34.57
2023-03-03T01:46:56.214Z,36.93
2023-03-03T01:52:01.866Z,32.87
2023-03-03T01:57:07.022Z,32.27
2023-03-03T02:02:09.501Z,36.73
2023-03-03T02:07:12.965Z,42.07
2023-03-03T02:12:18.317Z,38.70
2023-03-03T02:17:20.334Z,36.33
2023-03-03T02:22:45.861Z,38.50
2023-03-03T02:27:48.196Z,38.87
2023-03-03T02:32:50.405Z,43.33
2023-03-03T02:37:52.599Z,43.70
2023-03-03T02:42:56.780Z,42.50
2023-03-03T02:47:58.857Z,45.83
2023-03-03T02:53:00.947Z,46.17
2023-03-03T02:58:03.822Z,49.00
2023-03-03T03:03:06.698Z,55.87
2023-03-03T03:08:10.146Z,57.40
2023-03-03T03:13:12.044Z,69.53
2023-03-03T03:18:17.681Z,64.87
2023-03-03T03:23:23.475Z,63.37
2023-03-03T03:28:25.538Z,54.67
2023-03-03T03:33:29.657Z,55.40
2023-03-03T03:38:33.696Z,65.80
2023-03-03T03:43:35.846Z,61.27
2023-03-03T03:48:38.633Z,62.90
2023-03-03T03:53:42.978Z,53.83
2023-03-03T03:58:45.358Z,53.77
2023-03-03T04:03:50.406Z,60.63
2023-03-03T04:08:56.645Z,62.07
2023-03-03T04:14:00.652Z,61.03
2023-03-03T04:19:03.172Z,62.30
2023-03-03T04:24:08.201Z,57.10
2023-03-03T04:29:10.325Z,57.23
2023-03-03T04:34:13.401Z,64.13
2023-03-03T04:39:16.432Z,58.57
2023-03-03T04:44:18.457Z,57.33
2023-03-03T04:49:20.675Z,57.73
2023-03-03T04:54:23.298Z,60.60
2023-03-03T04:59:25.443Z,57.47
2023-03-03T05:04:28.541Z,56.53
2023-03-03T05:09:30.728Z,51.90
2023-03-03T05:14:33.120Z,51.53
2023-03-03T05:19:35.379Z,51.87
2023-03-03T05:24:37.310Z,44.40
2023-03-03T05:29:39.468Z,51.00
2023-03-03T05:34:41.528Z,44.67
2023-03-03T05:39:44.875Z,46.53
2023-03-03T05:44:46.886Z,46.83
2023-03-03T05:49:48.952Z,43.50
2023-03-03T05:54:50.937Z,48.57
2023-03-03T05:59:52.984Z,45.93
2023-03-03T06:04:54.870Z,42.10
2023-03-03T06:09:56.790Z,45.90
2023-03-03T06:15:00.822Z,44.47
2023-03-03T06:20:04.193Z,46.47
2023-03-03T06:25:06.253Z,49.20
2023-03-03T06:30:09.059Z,48.67
2023-03-03T06:35:11.030Z,53.33
2023-03-03T06:40:13.562Z,48.07
2023-03-03T06:45:15.664Z,49.80
2023-03-03T06:50:20.992Z,48.17
2023-03-03T06:55:24.123Z,49.87
2023-03-03T07:00:30.710Z,59.53
2023-03-03T07:05:34.438Z,56.23
2023-03-03T07:10:36.600Z,54.50
2023-03-03T07:15:38.458Z,55.13
2023-03-03T07:20:41.228Z,54.33
2023-03-03T07:25:45.786Z,52.23
2023-03-03T07:30:48.491Z,50.70
2023-03-03T07:35:50.894Z,56.93
2023-03-03T07:40:55.240Z,46.67
2023-03-03T07:46:43.566Z,52.80
2023-03-03T07:51:45.424Z,52.73
2023-03-03T07:56:47.842Z,48.97
2023-03-03T08:01:56.609Z,43.23
2023-03-03T08:07:00.787Z,47.30
2023-03-03T08:12:19.806Z,41.10
2023-03-03T08:17:24.576Z,39.27
2023-03-03T08:22:35.837Z,37.87
2023-03-03T08:27:37.827Z,39.20
2023-03-03T08:32:39.985Z,40.27
2023-03-03T08:37:42.122Z,59.20
2023-03-03T08:42:44.203Z,41.93
2023-03-03T08:47:46.171Z,39.13
2023-03-03T08:52:48.333Z,35.57
2023-03-03T08:57:50.458Z,38.33
2023-03-03T09:02:53.155Z,38.60
2023-03-03T09:07:55.967Z,42.57
2023-03-03T09:13:01.310Z,36.93
2023-03-03T09:18:24.515Z,37.90
2023-03-03T09:23:42.756Z,36.27
2023-03-03T09:28:44.642Z,42.53
2023-03-03T09:33:49.989Z,36.80
2023-03-03T09:38:52.509Z,37.50
2023-03-03T09:44:19.269Z,34.97
2023-03-03T09:49:45.049Z,34.80
2023-03-03T09:54:56.239Z,41.23
2023-03-03T10:00:19.929Z,39.40
2023-03-03T10:05:46.497Z,37.87
2023-03-03T10:11:30.629Z,37.77
2023-03-03T10:17:15.221Z,38.17
2023-03-03T10:22:28.577Z,37.73
2023-03-03T10:27:56.812Z,37.40
2023-03-03T10:33:01.824Z,36.23
2023-03-03T10:38:37.922Z,34.47
2023-03-03T10:44:27.435Z,33.47
2023-03-03T10:49:37.767Z,31.40
2023-03-03T10:55:06.240Z,32.60
2023-03-03T11:00:42.461Z,34.13
2023-03-03T11:06:13.366Z,31.60
2023-03-03T11:11:41.348Z,29.80
2023-03-03T11:16:48.967Z,28.33
2023-03-03T11:22:09.888Z,29.47
2023-03-03T11:27:50.440Z,29.73
2023-03-03T11:33:06.759Z,28.20
2023-03-03T11:38:28.555Z,29.70
2023-03-03T11:43:36.925Z,27.90
2023-03-03T11:48:55.243Z,27.17
2023-03-03T11:54:03.866Z,27.43
2023-03-03T11:59:33.336Z,28.63
2023-03-03T12:04:44.999Z,25.80
2023-03-03T12:09:47.013Z,29.23
2023-03-03T12:15:04.217Z,30.30
2023-03-03T12:20:24.123Z,25.73
2023-03-03T12:25:34.536Z,23.47
2023-03-03T12:31:05.569Z,22.40
2023-03-03T12:36:14.572Z,27.43
2023-03-03T12:41:20.437Z,25.80
2023-03-03T12:46:34.108Z,23.23
2023-03-03T12:52:02.323Z,22.20
2023-03-03T12:57:39.133Z,22.37
2023-03-03T13:03:04.236Z,21.77
2023-03-03T13:08:31.798Z,18.83
2023-03-03T13:14:02.449Z,20.90
2023-03-03T13:19:29.667Z,23.50
2023-03-03T13:25:00.457Z,21.83
2023-03-03T13:30:23.638Z,22.43
2023-03-03T13:36:12.162Z,20.77
2023-03-03T13:41:28.655Z,24.40
2023-03-03T13:46:50.097Z,21.83
2023-03-03T13:52:11.781Z,20.83
2023-03-03T13:58:05.094Z,19.77
2023-03-03T14:03:58.074Z,18.83
2023-03-03T14:09:22.522Z,20.67
2023-03-03T14:14:27.790Z,15.53
2023-03-03T14:19:36.872Z,20.27
2023-03-03T14:25:02.571Z,20.67
2023-03-03T14:30:27.923Z,19.03
2023-03-03T14:35:33.869Z,18.90
2023-03-03T14:40:39.099Z,20.53
2023-03-03T14:45:42.053Z,15.93
2023-03-03T14:50:53.329Z,16.83
2023-03-03T14:55:55.199Z,15.17
2023-03-03T15:01:12.544Z,16.13
2023-03-03T15:06:29.751Z,17.43
2023-03-03T15:11:33.527Z,16.60
2023-03-03T15:16:35.467Z,12.97
2023-03-03T15:21:48.083Z,16.90
2023-03-03T15:27:12.340Z,11.90
2023-03-03T15:32:28.982Z,14.93
2023-03-03T15:37:55.965Z,12.80
2023-03-03T15:43:48.820Z,11.57
2023-03-03T15:49:13.426Z,11.00
2023-03-03T15:54:33.904Z,10.23
2023-03-03T15:59:52.873Z,12.23
2023-03-03T16:05:35.221Z,10.97
2023-03-03T16:10:53.380Z,9.87
2023-03-03T16:16:21.552Z,10.37
2023-03-03T16:21:35.624Z,11.17
2023-03-03T16:26:50.143Z,10.97
2023-03-03T16:31:55.577Z,11.03
2023-03-03T16:36:57.702Z,14.03
2023-03-03T16:42:15.276Z,12.77
2023-03-03T16:47:29.439Z,10.17
2023-03-03T16:53:16.495Z,11.03
2023-03-03T16:58:30.992Z,11.50
2023-03-03T17:03:48.883Z,14.37
2023-03-03T17:09:33.659Z,11.53
2023-03-03T17:14:43.214Z,11.47
2023-03-03T17:20:06.868Z,11.10
2023-03-03T17:25:40.726Z,17.73
2023-03-03T17:30:49.596Z,12.20
2023-03-03T17:36:18.444Z,10.00
2023-03-03T17:41:34.505Z,11.17
2023-03-03T17:46:45.878Z,8.60
2023-03-03T17:52:00.108Z,8.87
2023-03-03T17:57:35.579Z,7.73
2023-03-03T18:02:59.795Z,10.80
2023-03-03T18:08:20.628Z,12.90
2023-03-03T18:13:45.919Z,12.93
2023-03-03T18:19:20.295Z,11.13
2023-03-03T18:24:51.481Z,13.27
2023-03-03T18:30:26.311Z,11.63
2023-03-03T18:35:37.528Z,12.33
2023-03-03T18:41:08.976Z,14.60
2023-03-03T18:46:19.993Z,11.40
2023-03-03T18:51:34.228Z,13.23
2023-03-03T18:56:47.317Z,17.27
2023-03-03T19:01:52.007Z,24.83
2023-03-03T19:06:56.330Z,18.73
2023-03-03T19:11:58.546Z,14.33
2023-03-03T19:17:23.244Z,13.03
2023-03-03T19:22:29.953Z,11.37
2023-03-03T19:27:43.727Z,10.17
2023-03-03T19:33:21.541Z,12.87
2023-03-03T19:39:01.467Z,12.17
2023-03-03T19:44:24.272Z,13.03
2023-03-03T19:50:05.190Z,9.97
2023-03-03T19:55:33.292Z,7.63
2023-03-03T20:00:43.576Z,8.10
2023-03-03T20:06:20.622Z,7.20
2023-03-03T20:11:35.832Z,10.23
2023-03-03T20:16:43.882Z,8.17
2023-03-03T20:22:37.304Z,9.13
2023-03-03T20:28:05.906Z,8.20
2023-03-03T20:33:29.744Z,10.57
2023-03-03T20:39:04.764Z,11.13
2023-03-03T20:44:25.625Z,11.17
2023-03-03T20:50:06.230Z,11.30
2023-03-03T20:55:13.276Z,14.50
2023-03-03T21:00:29.374Z,8.27
2023-03-03T21:05:31.679Z,10.40
2023-03-03T21:10:35.937Z,10.07
2023-03-03T21:15:38.221Z,11.10
2023-03-03T21:20:41.359Z,11.77
2023-03-03T21:25:48.320Z,11.83
2023-03-03T21:31:18.160Z,11.13
2023-03-03T21:36:23.257Z,14.13
2023-03-03T21:41:25.358Z,15.73
2023-03-03T21:46:27.440Z,15.87
2023-03-03T21:51:29.461Z,14.07
2023-03-03T21:56:32.699Z,16.60
2023-03-03T22:01:37.807Z,15.57
2023-03-03T22:06:40.506Z,15.40
2023-03-03T22:11:42.402Z,15.53
2023-03-03T22:16:44.395Z,14.47
2023-03-03T22:21:46.851Z,15.50
2023-03-03T22:26:48.856Z,15.33
2023-03-03T22:31:51.549Z,15.53
2023-03-03T22:36:54.877Z,14.13
2023-03-03T22:41:56.831Z,14.70
2023-03-03T22:46:58.831Z,13.17
2023-03-03T22:52:02.658Z,12.03
2023-03-03T22:57:04.631Z,12.93
2023-03-03T23:02:06.536Z,11.50
2023-03-03T23:07:08.656Z,16.97
2023-03-03T23:12:10.872Z,12.20
2023-03-03T23:17:12.692Z,12.93
2023-03-03T23:22:16.719Z,15.23
2023-03-03T23:27:18.612Z,19.73
2023-03-03T23:32:24.754Z,19.27
2023-03-03T23:37:26.654Z,13.97
2023-03-03T23:42:30.614Z,15.00
2023-03-03T23:47:32.955Z,17.93
2023-03-03T23:52:35.017Z,16.63
2023-03-03T23:57:37.003Z,17.87
